createdAt,value
2023-03-18T06:19:23.123Z,5.03
2023-03-18T06:24:29.405Z,4.05
2023-03-18T06:29:39.026Z,4.90
2023-03-18T06:34:52.908Z,4.65
2023-03-18T06:39:59.913Z,4.57
2023-03-18T06:45:07.945Z,4.57
2023-03-18T06:50:25.669Z,4.22
2023-03-18T06:55:31.881Z,4.05
2023-03-18T07:00:38.966Z,5.17
2023-03-18T07:05:47.349Z,4.43
2023-03-18T07:10:57.425Z,5.13
2023-03-18T07:16:06.483Z,5.22
2023-03-18T07:21:11.632Z,5.15
2023-03-18T07:26:18.615Z,4.50
2023-03-18T07:31:25.653Z,5.53
2023-03-18T07:36:30.196Z,4.93
2023-03-18T07:41:37.808Z,5.30
2023-03-18T07:46:45.424Z,4.65
2023-03-18T07:51:49.872Z,4.95
2023-03-18T07:56:54.650Z,3.70
2023-03-18T08:02:00.372Z,3.90
2023-03-18T08:07:04.785Z,3.65
2023-03-18T08:12:09.953Z,3.05
2023-03-18T08:17:15.937Z,3.53
2023-03-18T08:22:24.213Z,3.97
2023-03-18T08:27:28.342Z,3.83
2023-03-18T08:32:34.197Z,4.20
2023-03-18T08:37:38.534Z,3.65
2023-03-18T08:42:42.531Z,4.30
2023-03-18T08:47:48.546Z,4.53
2023-03-18T08:52:52.567Z,3.80
2023-03-18T08:57:56.733Z,3.53
2023-03-18T09:03:02.875Z,3.70
2023-03-18T09:08:07.895Z,3.25
2023-03-18T09:13:12.675Z,3.90
2023-03-18T09:18:19.526Z,4.30
2023-03-18T09:23:23.842Z,3.70
2023-03-18T09:28:28.408Z,3.88
2023-03-18T09:33:45.666Z,3.60
2023-03-18T09:38:50.067Z,3.88
2023-03-18T09:44:03.488Z,4.38
2023-03-18T09:49:31.644Z,18.50
2023-03-18T09:54:41.388Z,5.45
2023-03-18T09:59:48.838Z,5.55
2023-03-18T10:04:58.166Z,7.85
2023-03-18T10:10:08.625Z,4.00
2023-03-18T10:15:19.278Z,3.67
2023-03-18T10:20:35.197Z,3.97
2023-03-18T10:25:44.996Z,3.78
2023-03-18T10:30:57.782Z,4.47
2023-03-18T10:36:10.418Z,3.38
2023-03-18T10:41:18.780Z,3.58
2023-03-18T10:46:23.694Z,4.07
2023-03-18T10:51:35.794Z,4.10
2023-03-18T10:56:40.372Z,5.00
2023-03-18T11:01:50.029Z,3.65
2023-03-18T11:06:59.613Z,3.72
2023-03-18T11:12:05.877Z,4.03
2023-03-18T11:17:22.126Z,3.75
2023-03-18T11:22:29.187Z,4.13
2023-03-18T11:27:40.648Z,3.88
2023-03-18T11:32:56.741Z,3.60
2023-03-18T11:43:20.119Z,3.92
2023-03-18T11:48:35.788Z,3.45
2023-03-18T11:53:52.749Z,3.47
2023-03-18T11:59:14.056Z,4.18
2023-03-18T12:04:38.932Z,3.53
2023-03-18T12:09:56.974Z,3.30
2023-03-18T12:15:06.844Z,3.42
2023-03-18T12:20:48.252Z,3.63
2023-03-18T12:26:02.211Z,4.53
2023-03-18T12:31:24.022Z,3.40
2023-03-18T12:36:39.790Z,3.33
2023-03-18T12:42:02.568Z,3.40
2023-03-18T12:47:10.581Z,3.60
2023-03-18T12:52:27.538Z,3.50
2023-03-18T12:57:42.212Z,3.22
2023-03-18T13:02:54.271Z,4.22
2023-03-18T13:08:27.805Z,3.40
2023-03-18T13:13:38.445Z,3.28
2023-03-18T13:18:46.401Z,7.97
2023-03-18T13:24:22.042Z,3.70
2023-03-18T13:29:36.460Z,3.15
2023-03-18T13:35:02.581Z,3.65
2023-03-18T13:45:28.057Z,2.90
2023-03-18T13:50:35.702Z,3.20
2023-03-18T13:55:47.702Z,2.72
2023-03-18T14:01:28.785Z,2.80
2023-03-18T14:06:53.923Z,3.60
2023-03-18T14:12:05.051Z,3.33
2023-03-18T14:17:19.518Z,2.70
2023-03-18T14:22:27.925Z,3.67
2023-03-18T14:27:32.078Z,3.05
2023-03-18T14:32:41.760Z,3.53
2023-03-18T14:38:02.694Z,3.20
2023-03-18T14:43:11.762Z,3.40
2023-03-18T14:48:21.769Z,3.50
2023-03-18T14:53:32.237Z,3.42
2023-03-18T14:58:36.504Z,3.15
2023-03-18T15:03:44.947Z,3.17
2023-03-18T15:08:52.634Z,3.88
2023-03-18T15:14:00.137Z,3.30
2023-03-18T15:19:06.940Z,3.88
2023-03-18T15:24:17.059Z,3.20
2023-03-18T15:29:31.529Z,3.50
2023-03-18T15:34:39.604Z,3.78
2023-03-18T15:39:44.141Z,3.72
2023-03-18T15:44:56.149Z,3.92
2023-03-18T15:50:09.643Z,4.07
2023-03-18T15:55:29.377Z,4.13
2023-03-18T16:00:34.809Z,4.25
2023-03-18T16:05:40.380Z,3.70
2023-03-18T16:10:46.878Z,4.03
2023-03-18T16:15:51.408Z,4.72
2023-03-18T16:20:57.440Z,6.20
2023-03-18T16:26:02.237Z,7.30
2023-03-18T16:31:07.116Z,7.80
2023-03-18T16:36:25.214Z,6.85
2023-03-18T16:41:29.699Z,6.40
2023-03-18T16:46:34.120Z,5.68
2023-03-18T16:51:41.356Z,5.32
2023-03-18T16:56:45.484Z,5.95
2023-03-18T17:01:49.610Z,7.63
2023-03-18T17:06:57.998Z,7.72
2023-03-18T17:12:07.618Z,7.40
2023-03-18T17:17:19.267Z,7.65
2023-03-18T17:22:30.602Z,7.40
2023-03-18T17:27:40.914Z,7.53
2023-03-18T17:32:47.779Z,6.70
2023-03-18T17:37:54.817Z,7.80
2023-03-18T17:42:59.129Z,8.18
2023-03-18T17:48:15.946Z,9.50
2023-03-18T17:53:35.405Z,10.15
2023-03-18T17:58:44.992Z,9.02
2023-03-18T18:03:49.736Z,9.82
2023-03-18T18:08:59.143Z,9.10
2023-03-18T18:14:13.254Z,9.02
2023-03-18T18:19:17.654Z,8.70
2023-03-18T18:24:24.864Z,8.73
2023-03-18T18:29:31.427Z,9.93
2023-03-18T18:34:36.354Z,10.20
2023-03-18T18:39:42.690Z,8.77
2023-03-18T18:44:47.286Z,9.05
2023-03-18T18:49:52.070Z,10.88
2023-03-18T18:54:58.058Z,11.10
2023-03-18T19:00:02.384Z,11.70
2023-03-18T19:05:08.218Z,10.40
2023-03-18T19:10:15.988Z,10.90
2023-03-18T19:15:21.707Z,9.18
2023-03-18T19:20:30.022Z,9.15
2023-03-18T19:25:35.809Z,8.32
2023-03-18T19:30:40.058Z,8.65
2023-03-18T19:35:45.118Z,8.48
2023-03-18T19:40:52.924Z,7.53
2023-03-18T19:45:57.235Z,8.50
2023-03-18T19:51:01.513Z,8.38
2023-03-18T19:56:17.641Z,7.82
2023-03-18T20:01:23.054Z,7.30
2023-03-18T20:06:27.697Z,7.28
2023-03-18T20:11:33.493Z,7.55
2023-03-18T20:16:37.697Z,8.90
2023-03-18T20:21:42.323Z,8.00
2023-03-18T20:26:48.103Z,7.28
2023-03-18T20:36:56.504Z,7.32
2023-03-18T20:42:02.046Z,7.63
2023-03-18T20:47:06.497Z,6.22
2023-03-18T20:52:24.412Z,6.95
2023-03-18T20:57:30.292Z,7.88
2023-03-18T21:07:39.889Z,7.88
2023-03-18T21:12:46.014Z,6.53
2023-03-18T21:17:50.543Z,6.65
2023-03-18T21:22:56.246Z,8.10
2023-03-18T21:28:02.230Z,7.90
2023-03-18T21:33:18.835Z,7.88
2023-03-18T21:38:22.987Z,7.10
2023-03-18T21:43:34.085Z,7.22
2023-03-18T21:48:38.354Z,7.50
2023-03-18T21:53:42.526Z,7.38
2023-03-18T21:58:48.309Z,7.10
2023-03-18T22:03:53.969Z,7.93
2023-03-18T22:08:58.873Z,7.50
2023-03-18T22:14:04.923Z,6.63
2023-03-18T22:24:15.718Z,7.25
2023-03-18T22:29:24.257Z,8.02
2023-03-18T22:34:28.423Z,10.00
2023-03-18T22:39:32.394Z,10.07
2023-03-18T22:44:38.235Z,8.18
2023-03-18T22:49:42.384Z,9.70
2023-03-18T22:54:46.739Z,9.35
2023-03-18T22:59:52.591Z,10.48
2023-03-18T23:04:57.620Z,7.40
2023-03-18T23:10:04.794Z,7.00
2023-03-18T23:15:17.237Z,6.57
2023-03-18T23:20:21.541Z,5.50
2023-03-18T23:25:26.002Z,6.18
2023-03-18T23:30:32.258Z,6.15
2023-03-18T23:35:37.659Z,5.70
2023-03-18T23:40:41.991Z,5.18
2023-03-18T23:45:47.556Z,5.85
2023-03-18T23:50:51.641Z,5.30
2023-03-18T23:55:56.008Z,5.60
